Time;durP1;ratioP1;P1;durP2;ratioP2;P2;SDS_P1;SDS_P2;PMS_P1;PMS_P2;Temp;Humidity;BMP_temperature;BMP_pressure;BME280_temperature;BME280_humidity;BME280_pressure;Samples;Min_cycle;Max_cycle;Signal;HPM_P1;HPM_P2
2023/05/13 00:00:02;;;;;;;;;;;10.40;99.90;;;;;;5077488;28;19970;-79
2023/05/13 00:02:31;;;;;;;;;;;10.40;99.90;;;;;;5078012;28;20458;-79
2023/05/13 00:04:58;;;;;;;;;;;10.50;99.90;;;;;;5056874;28;20004;-78
2023/05/13 00:07:27;;;;;;;;;;;10.50;99.90;;;;;;5052159;28;19928;-79
2023/05/13 00:09:54;;;;;;;;;;;10.60;99.90;;;;;;5079442;28;19951;-79
2023/05/13 00:12:20;;;;;;;;;;;10.60;99.90;;;;;;5060598;28;19978;-80
2023/05/13 00:14:47;;;;;;;;;;;10.60;99.90;;;;;;5061644;28;19950;-79
2023/05/13 00:17:14;;;;;;;;;;;10.50;99.90;;;;;;5060901;28;20379;-79
2023/05/13 00:19:41;;;;;;;;;;;10.50;99.90;;;;;;5059991;28;19935;-79
2023/05/13 00:22:08;;;;;;;;;;;10.60;99.90;;;;;;5058841;28;19925;-80
2023/05/13 00:24:36;;;;;;;;;;;10.60;99.90;;;;;;5062782;28;19925;-80
2023/05/13 00:27:04;;;;;;;;;;;10.70;99.90;;;;;;5077139;28;19935;-80
2023/05/13 00:29:31;;;;;;;;;;;10.70;99.90;;;;;;5057723;28;19928;-80
2023/05/13 00:31:58;;;;;;;;;;;10.70;99.90;;;;;;5057316;28;19928;-80
2023/05/13 00:34:25;;;;;;;;;;;10.80;99.90;;;;;;5077111;28;19934;-80
2023/05/13 00:36:51;;;;;;;;;;;10.90;99.90;;;;;;5078229;28;19928;-80
2023/05/13 00:39:18;;;;;;;;;;;10.90;99.90;;;;;;5061438;28;19930;-80
2023/05/13 00:41:47;;;;;;;;;;;10.90;99.90;;;;;;5060799;28;20344;-80
2023/05/13 00:44:14;;;;;;;;;;;11.00;99.90;;;;;;5059980;28;20388;-79
2023/05/13 00:46:44;;;;;;;;;;;11.00;99.90;;;;;;5059457;28;20013;-81
2023/05/13 00:49:10;;;;;;;;;;;11.00;99.90;;;;;;5059600;28;19982;-80
2023/05/13 00:51:37;;;;;;;;;;;11.00;99.90;;;;;;5043125;28;20049;-80
2023/05/13 00:54:05;;;;;;;;;;;11.00;99.90;;;;;;5057124;28;19931;-79
2023/05/13 00:56:32;;;;;;;;;;;11.00;99.90;;;;;;5054287;28;20331;-79
2023/05/13 00:59:00;;;;;;;;;;;11.00;99.90;;;;;;5054975;28;20384;-79
2023/05/13 01:01:32;;;;;;;;;;;10.90;99.90;;;;;;5058826;28;19929;-79
2023/05/13 01:04:03;;;;;;;;;;;10.90;99.90;;;;;;5058818;28;19929;-80
2023/05/13 01:06:33;;;;;;;;;;;11.00;99.90;;;;;;5039962;28;19932;-77
2023/05/13 01:09:03;;;;;;;;;;;10.90;99.90;;;;;;5075260;28;19932;-78
2023/05/13 01:11:33;;;;;;;;;;;10.90;99.90;;;;;;5074391;28;19951;-78
2023/05/13 01:14:06;;;;;;;;;;;10.90;99.90;;;;;;5057833;28;20450;-78
2023/05/13 01:16:35;;;;;;;;;;;10.90;99.90;;;;;;5071233;28;20019;-78
2023/05/13 01:19:11;;;;;;;;;;;10.80;99.90;;;;;;5057514;28;19928;-78
2023/05/13 01:21:40;;;;;;;;;;;10.80;99.90;;;;;;5058359;28;19925;-78
2023/05/13 01:24:07;;;;;;;;;;;10.70;99.90;;;;;;5054357;28;19924;-80
2023/05/13 01:26:34;;;;;;;;;;;10.70;99.90;;;;;;5068135;28;20004;-79
2023/05/13 01:29:01;;;;;;;;;;;10.70;99.90;;;;;;5077196;28;19924;-78
2023/05/13 01:31:29;;;;;;;;;;;10.60;99.90;;;;;;5061178;28;19928;-79
2023/05/13 01:33:56;;;;;;;;;;;10.60;99.90;;;;;;5065236;28;19924;-79
2023/05/13 01:36:23;;;;;;;;;;;10.50;99.90;;;;;;5047524;28;19940;-79
2023/05/13 01:38:52;;;;;;;;;;;10.50;99.90;;;;;;5065264;28;19939;-79
2023/05/13 01:41:20;;;;;;;;;;;10.50;99.90;;;;;;5060823;28;20710;-79
2023/05/13 01:43:48;;;;;;;;;;;10.50;99.90;;;;;;5053252;28;19921;-79
2023/05/13 01:46:15;;;;;;;;;;;10.40;99.90;;;;;;5073498;28;19928;-79
2023/05/13 01:48:42;;;;;;;;;;;11.30;99.90;;;;;;5061532;28;19924;-79
2023/05/13 01:51:09;;;;;;;;;;;10.40;99.90;;;;;;5055291;28;19928;-79
2023/05/13 01:53:36;;;;;;;;;;;10.30;99.90;;;;;;5048639;28;19932;-80
2023/05/13 01:56:05;;;;;;;;;;;10.20;99.90;;;;;;5055638;28;19928;-81
2023/05/13 01:58:31;;;;;;;;;;;10.20;99.90;;;;;;5059781;28;19932;-80
2023/05/13 02:01:00;;;;;;;;;;;10.20;99.90;;;;;;5057090;28;19979;-78
2023/05/13 02:03:27;;;;;;;;;;;10.10;99.90;;;;;;5059280;28;19928;-79
2023/05/13 02:05:54;;;;;;;;;;;10.00;99.90;;;;;;5060727;28;19974;-79
2023/05/13 02:08:24;;;;;;;;;;;10.00;99.90;;;;;;5058126;28;19935;-79
2023/05/13 02:10:54;;;;;;;;;;;10.00;99.90;;;;;;5059905;28;19933;-80
2023/05/13 02:13:23;;;;;;;;;;;9.90;99.90;;;;;;5060163;28;19929;-80
2023/05/13 02:15:50;;;;;;;;;;;9.90;99.90;;;;;;5055628;28;19928;-79
2023/05/13 02:18:17;;;;;;;;;;;9.90;99.90;;;;;;5059540;28;19928;-79
2023/05/13 02:20:44;;;;;;;;;;;9.90;99.90;;;;;;5075055;28;20244;-81
2023/05/13 02:23:11;;;;;;;;;;;9.90;99.90;;;;;;5043211;28;20735;-81
2023/05/13 02:25:38;;;;;;;;;;;9.90;99.90;;;;;;5058739;28;19958;-79
2023/05/13 02:28:05;;;;;;;;;;;9.90;99.90;;;;;;5054433;28;19928;-80
2023/05/13 02:30:33;;;;;;;;;;;9.90;99.90;;;;;;5063997;28;20048;-79
2023/05/13 02:33:01;;;;;;;;;;;10.00;99.90;;;;;;5076337;28;20478;-79
2023/05/13 02:35:28;;;;;;;;;;;10.00;99.90;;;;;;5058659;28;20363;-79
2023/05/13 02:37:56;;;;;;;;;;;10.00;99.90;;;;;;5058535;28;19928;-78
2023/05/13 02:40:26;;;;;;;;;;;10.00;99.90;;;;;;5077494;28;20035;-78
2023/05/13 02:42:53;;;;;;;;;;;10.00;99.90;;;;;;5061751;28;19935;-78
2023/05/13 02:45:27;;;;;;;;;;;9.90;99.90;;;;;;5054301;28;19929;-78
2023/05/13 02:47:57;;;;;;;;;;;9.90;99.90;;;;;;5052240;28;19936;-78
2023/05/13 02:50:25;;;;;;;;;;;9.90;99.90;;;;;;5076057;28;19925;-78
2023/05/13 02:52:52;;;;;;;;;;;9.80;99.90;;;;;;5052705;28;19924;-77
2023/05/13 02:55:20;;;;;;;;;;;9.80;99.90;;;;;;5039037;28;19975;-79
2023/05/13 02:57:47;;;;;;;;;;;9.70;99.90;;;;;;5039664;28;20000;-79
2023/05/13 03:00:14;;;;;;;;;;;9.70;99.90;;;;;;5045111;28;19925;-79
2023/05/13 03:02:41;;;;;;;;;;;9.70;99.90;;;;;;5059159;28;19928;-78
2023/05/13 03:05:10;;;;;;;;;;;9.70;99.90;;;;;;5077184;28;19929;-79
2023/05/13 03:07:40;;;;;;;;;;;9.70;99.90;;;;;;5054772;28;20047;-79
2023/05/13 03:10:07;;;;;;;;;;;9.60;99.90;;;;;;5039186;28;19995;-80
2023/05/13 03:12:35;;;;;;;;;;;9.70;99.90;;;;;;5056915;28;19928;-79
2023/05/13 03:15:03;;;;;;;;;;;9.70;99.90;;;;;;5052599;28;19925;-80
2023/05/13 03:17:30;;;;;;;;;;;9.70;99.90;;;;;;5078717;28;19936;-78
2023/05/13 03:19:58;;;;;;;;;;;9.70;99.90;;;;;;5070680;28;19990;-79
2023/05/13 03:22:27;;;;;;;;;;;9.70;99.90;;;;;;5061984;28;20389;-78
2023/05/13 03:24:54;;;;;;;;;;;9.70;99.90;;;;;;5060011;28;19924;-79
2023/05/13 03:27:24;;;;;;;;;;;9.70;99.90;;;;;;5060938;28;19938;-78
2023/05/13 03:29:51;;;;;;;;;;;9.70;99.90;;;;;;5068009;28;19916;-78
2023/05/13 03:32:18;;;;;;;;;;;9.60;99.90;;;;;;5060387;28;19928;-78
2023/05/13 03:34:45;;;;;;;;;;;9.60;99.90;;;;;;5077831;28;19923;-78
2023/05/13 03:37:14;;;;;;;;;;;9.60;99.90;;;;;;5052291;28;19929;-79
2023/05/13 03:39:42;;;;;;;;;;;9.60;99.90;;;;;;5053130;28;19971;-78
2023/05/13 03:42:09;;;;;;;;;;;9.60;99.90;;;;;;5074270;28;19925;-78
2023/05/13 03:44:37;;;;;;;;;;;9.50;99.90;;;;;;5059613;28;19939;-78
2023/05/13 03:47:04;;;;;;;;;;;9.50;99.90;;;;;;5077210;28;19938;-78
2023/05/13 03:49:31;;;;;;;;;;;9.50;99.90;;;;;;5048779;28;19929;-78
2023/05/13 03:51:58;;;;;;;;;;;9.50;99.90;;;;;;5048142;28;19963;-78
2023/05/13 03:54:25;;;;;;;;;;;11.30;99.90;;;;;;5056220;28;19986;-77
2023/05/13 03:56:53;;;;;;;;;;;9.50;99.90;;;;;;5051958;28;19943;-78
2023/05/13 03:59:20;;;;;;;;;;;9.50;99.90;;;;;;5060084;28;20617;-77
2023/05/13 04:01:47;;;;;;;;;;;9.50;99.90;;;;;;5056658;28;19924;-77
2023/05/13 04:04:15;;;;;;;;;;;9.50;99.90;;;;;;5038075;28;19982;-78
2023/05/13 04:06:41;;;;;;;;;;;9.50;99.90;;;;;;5060424;28;19987;-78
2023/05/13 04:09:09;;;;;;;;;;;9.50;99.90;;;;;;5067199;28;19929;-78
2023/05/13 04:11:36;;;;;;;;;;;9.50;99.90;;;;;;5069083;28;19913;-79
2023/05/13 04:14:04;;;;;;;;;;;9.60;99.90;;;;;;5066862;28;19940;-78
2023/05/13 04:16:31;;;;;;;;;;;9.60;99.90;;;;;;5059365;28;20059;-77
2023/05/13 04:18:58;;;;;;;;;;;9.60;99.90;;;;;;5075714;28;19939;-79
2023/05/13 04:21:25;;;;;;;;;;;9.60;99.90;;;;;;5073853;28;19937;-78
2023/05/13 04:23:52;;;;;;;;;;;9.60;99.90;;;;;;5058991;28;19955;-79
2023/05/13 04:26:19;;;;;;;;;;;9.70;99.90;;;;;;5067572;28;19925;-79
2023/05/13 04:28:45;;;;;;;;;;;9.70;99.90;;;;;;5076479;28;19928;-78
2023/05/13 04:31:14;;;;;;;;;;;9.80;99.90;;;;;;5053366;28;19956;-78
2023/05/13 04:33:41;;;;;;;;;;;9.80;99.90;;;;;;5071886;28;19929;-78
2023/05/13 04:36:08;;;;;;;;;;;9.80;99.90;;;;;;5059095;28;19987;-79
2023/05/13 04:38:36;;;;;;;;;;;9.90;99.90;;;;;;5056214;28;19932;-78
2023/05/13 04:41:03;;;;;;;;;;;9.90;99.90;;;;;;5057883;28;19982;-78
2023/05/13 04:43:41;;;;;;;;;;;9.90;99.90;;;;;;5058750;28;19964;-77
2023/05/13 04:46:08;;;;;;;;;;;10.00;99.90;;;;;;5058889;28;19928;-77
2023/05/13 04:48:36;;;;;;;;;;;10.10;99.90;;;;;;5076443;28;19924;-78
2023/05/13 04:51:04;;;;;;;;;;;10.10;99.90;;;;;;5060987;28;20007;-79
2023/05/13 04:53:32;;;;;;;;;;;10.20;99.90;;;;;;5051282;28;20337;-79
2023/05/13 04:56:02;;;;;;;;;;;10.30;99.90;;;;;;5052177;28;19920;-79
2023/05/13 04:58:30;;;;;;;;;;;10.40;99.90;;;;;;5062238;28;19928;-81
2023/05/13 05:01:00;;;;;;;;;;;10.50;99.90;;;;;;5063734;28;19978;-79
2023/05/13 05:03:27;;;;;;;;;;;10.60;99.90;;;;;;5058950;28;19940;-80
2023/05/13 05:05:56;;;;;;;;;;;10.80;99.90;;;;;;5043474;28;19925;-79
2023/05/13 05:08:24;;;;;;;;;;;10.80;99.90;;;;;;5061387;28;19928;-79
2023/05/13 05:10:51;;;;;;;;;;;10.90;99.90;;;;;;5045324;28;19972;-80
2023/05/13 05:13:19;;;;;;;;;;;11.10;99.90;;;;;;5061775;28;19934;-79
2023/05/13 05:15:45;;;;;;;;;;;11.20;99.90;;;;;;5074482;28;20455;-80
2023/05/13 05:18:14;;;;;;;;;;;11.30;99.90;;;;;;5080349;28;19928;-80
2023/05/13 05:20:43;;;;;;;;;;;11.50;99.90;;;;;;5078444;28;19932;-80
2023/05/13 05:23:16;;;;;;;;;;;11.60;99.90;;;;;;5057376;28;19931;-79
2023/05/13 05:25:44;;;;;;;;;;;11.80;99.90;;;;;;5051525;28;20701;-79
2023/05/13 05:28:11;;;;;;;;;;;12.00;99.90;;;;;;5074943;28;19996;-81
2023/05/13 05:30:41;;;;;;;;;;;12.20;99.90;;;;;;5059367;28;19925;-81
2023/05/13 05:33:20;;;;;;;;;;;12.30;99.90;;;;;;5093801;28;19935;-83
2023/05/13 05:35:47;;;;;;;;;;;12.60;99.90;;;;;;5074101;28;20015;-83
2023/05/13 05:38:18;;;;;;;;;;;13.50;99.90;;;;;;5065778;28;19928;-83
2023/05/13 05:40:48;;;;;;;;;;;15.00;99.90;;;;;;5098554;28;19939;-82
2023/05/13 05:43:15;;;;;;;;;;;16.70;99.90;;;;;;5080832;28;19924;-83
2023/05/13 05:45:42;;;;;;;;;;;18.10;99.90;;;;;;5072633;28;19925;-84
2023/05/13 05:48:12;;;;;;;;;;;19.60;99.90;;;;;;5081892;28;19929;-84
2023/05/13 05:50:40;;;;;;;;;;;20.60;99.90;;;;;;5082393;28;19929;-83
2023/05/13 05:53:09;;;;;;;;;;;21.60;99.90;;;;;;5054942;28;19928;-84
2023/05/13 05:55:40;;;;;;;;;;;23.50;99.90;;;;;;5058985;28;19929;-84
2023/05/13 05:58:09;;;;;;;;;;;23.50;99.90;;;;;;5060015;28;19928;-82
2023/05/13 06:00:37;;;;;;;;;;;24.30;99.90;;;;;;5070618;28;19924;-84
2023/05/13 06:03:04;;;;;;;;;;;25.00;99.90;;;;;;5065327;28;19947;-84
2023/05/13 06:05:32;;;;;;;;;;;26.20;99.90;;;;;;5065312;28;19947;-84
2023/05/13 06:07:59;;;;;;;;;;;26.20;99.90;;;;;;5063568;28;19938;-85
2023/05/13 06:10:26;;;;;;;;;;;26.50;99.90;;;;;;5051581;28;20025;-84
2023/05/13 06:12:55;;;;;;;;;;;27.10;99.90;;;;;;5057745;28;19933;-85
2023/05/13 06:15:22;;;;;;;;;;;27.60;99.90;;;;;;5069098;28;19988;-84
2023/05/13 06:17:49;;;;;;;;;;;27.60;99.90;;;;;;5062320;28;20208;-83
2023/05/13 06:20:16;;;;;;;;;;;27.90;99.90;;;;;;5061635;28;19924;-83
2023/05/13 06:22:43;;;;;;;;;;;28.70;99.90;;;;;;5053049;28;19929;-83
2023/05/13 06:25:12;;;;;;;;;;;28.60;99.90;;;;;;5069414;28;19925;-83
2023/05/13 06:27:41;;;;;;;;;;;29.00;99.90;;;;;;5059659;28;20319;-84
2023/05/13 06:30:09;;;;;;;;;;;29.00;99.90;;;;;;5061573;28;19939;-80
2023/05/13 06:32:36;;;;;;;;;;;28.20;99.90;;;;;;5060515;28;19913;-80
2023/05/13 06:35:04;;;;;;;;;;;29.60;99.90;;;;;;5057160;28;20293;-81
2023/05/13 06:37:35;;;;;;;;;;;29.70;99.90;;;;;;5054813;28;20014;-85
2023/05/13 06:40:03;;;;;;;;;;;30.20;99.90;;;;;;5070703;28;20023;-82
2023/05/13 06:42:31;;;;;;;;;;;30.20;99.90;;;;;;5055696;28;20003;-84
2023/05/13 06:45:01;;;;;;;;;;;30.20;99.90;;;;;;5060110;28;19924;-84
2023/05/13 06:47:31;;;;;;;;;;;30.10;99.90;;;;;;5058273;28;20021;-81
2023/05/13 06:49:59;;;;;;;;;;;30.00;99.90;;;;;;5079275;28;19928;-85
2023/05/13 06:52:26;;;;;;;;;;;29.70;99.90;;;;;;5057756;28;19935;-83
2023/05/13 06:54:53;;;;;;;;;;;29.60;99.90;;;;;;5055949;28;19925;-84
2023/05/13 06:57:20;;;;;;;;;;;30.50;99.90;;;;;;5500351;22;19928;-84
2023/05/13 06:59:47;;;;;;;;;;;30.70;99.90;;;;;;5053614;28;20015;-85
2023/05/13 07:02:14;;;;;;;;;;;31.30;99.90;;;;;;5055518;28;19974;-85
2023/05/13 07:04:43;;;;;;;;;;;31.40;99.90;;;;;;5065763;28;19925;-85
2023/05/13 07:07:10;;;;;;;;;;;31.60;99.90;;;;;;5052479;28;19929;-84
2023/05/13 07:09:37;;;;;;;;;;;32.10;99.90;;;;;;5074579;28;19933;-84
2023/05/13 07:12:04;;;;;;;;;;;32.00;99.90;;;;;;5065434;28;19936;-82
2023/05/13 07:14:31;;;;;;;;;;;31.70;99.90;;;;;;5069300;28;19932;-80
2023/05/13 07:16:58;;;;;;;;;;;32.30;99.90;;;;;;5056443;28;19928;-81
2023/05/13 07:19:25;;;;;;;;;;;32.80;99.90;;;;;;5056602;28;19951;-81
2023/05/13 07:21:53;;;;;;;;;;;33.50;99.90;;;;;;5056465;28;20485;-81
2023/05/13 07:24:20;;;;;;;;;;;33.30;99.90;;;;;;5057638;28;20664;-80
2023/05/13 07:26:54;;;;;;;;;;;33.20;99.90;;;;;;5044893;28;19932;-82
2023/05/13 07:29:27;;;;;;;;;;;33.10;99.90;;;;;;5073057;28;20015;-83
2023/05/13 07:32:05;;;;;;;;;;;33.20;99.90;;;;;;5056752;28;19936;-84
2023/05/13 07:34:41;;;;;;;;;;;33.10;99.90;;;;;;5073904;28;20309;-84
2023/05/13 07:37:13;;;;;;;;;;;33.60;99.90;;;;;;5086809;28;20411;-84
2023/05/13 07:39:40;;;;;;;;;;;33.70;99.90;;;;;;5076394;28;19935;-85
2023/05/13 07:42:07;;;;;;;;;;;33.50;99.90;;;;;;5076894;28;20599;-85
2023/05/13 07:44:33;;;;;;;;;;;32.90;99.90;;;;;;5068985;28;20015;-84
2023/05/13 07:47:00;;;;;;;;;;;32.30;99.90;;;;;;5056659;28;19950;-85
2023/05/13 07:49:27;;;;;;;;;;;32.30;99.90;;;;;;5056538;28;20042;-85
2023/05/13 07:51:54;;;;;;;;;;;32.40;99.90;;;;;;5060044;28;19931;-85
2023/05/13 07:54:22;;;;;;;;;;;32.90;99.90;;;;;;5058015;28;19939;-85
2023/05/13 07:56:49;;;;;;;;;;;33.40;99.90;;;;;;5068480;28;19928;-85
2023/05/13 07:59:18;;;;;;;;;;;33.00;99.90;;;;;;5069633;28;19928;-84
2023/05/13 08:01:45;;;;;;;;;;;32.80;99.90;;;;;;5064130;28;19960;-85
2023/05/13 08:04:12;;;;;;;;;;;32.50;99.90;;;;;;5044781;28;19925;-85
2023/05/13 08:06:39;;;;;;;;;;;32.50;99.90;;;;;;5050248;28;19932;-84
2023/05/13 08:09:08;;;;;;;;;;;32.50;99.50;;;;;;5058144;28;19925;-85
2023/05/13 08:11:36;;;;;;;;;;;32.60;99.90;;;;;;5057435;28;19936;-84
2023/05/13 08:14:03;;;;;;;;;;;32.30;95.90;;;;;;5057172;28;19916;-84
2023/05/13 08:16:30;;;;;;;;;;;30.50;99.00;;;;;;5056803;28;19924;-84
2023/05/13 08:18:57;;;;;;;;;;;29.90;97.50;;;;;;5056024;28;19929;-84
2023/05/13 08:21:24;;;;;;;;;;;28.60;97.10;;;;;;5061524;28;19978;-85
2023/05/13 08:23:51;;;;;;;;;;;27.40;97.90;;;;;;5078952;28;19985;-84
2023/05/13 08:26:18;;;;;;;;;;;26.90;99.90;;;;;;5072246;28;19935;-86
2023/05/13 08:28:46;;;;;;;;;;;27.10;99.90;;;;;;5060316;28;20035;-84
2023/05/13 08:31:13;;;;;;;;;;;27.60;99.90;;;;;;5056071;28;20243;-85
2023/05/13 08:33:41;;;;;;;;;;;27.70;99.90;;;;;;5072761;28;19924;-84
2023/05/13 08:36:08;;;;;;;;;;;26.90;99.90;;;;;;5059717;28;19975;-84
2023/05/13 08:38:35;;;;;;;;;;;26.80;99.90;;;;;;5058586;28;20299;-84
2023/05/13 08:41:03;;;;;;;;;;;26.40;99.90;;;;;;5057350;28;20346;-84
2023/05/13 08:43:32;;;;;;;;;;;26.10;99.90;;;;;;5057705;28;19912;-84
2023/05/13 08:46:02;;;;;;;;;;;25.60;99.90;;;;;;5076315;28;19935;-84
2023/05/13 08:48:30;;;;;;;;;;;25.20;99.90;;;;;;5075675;28;19935;-84
2023/05/13 08:50:57;;;;;;;;;;;25.20;99.90;;;;;;5062649;28;19928;-83
2023/05/13 08:53:25;;;;;;;;;;;24.80;99.90;;;;;;5061506;28;19928;-83
2023/05/13 08:55:52;;;;;;;;;;;24.50;99.90;;;;;;5065411;28;20031;-84
2023/05/13 08:58:22;;;;;;;;;;;24.80;99.90;;;;;;5077218;28;19932;-85
2023/05/13 09:00:49;;;;;;;;;;;25.80;99.90;;;;;;5064530;28;19933;-85
2023/05/13 09:03:18;;;;;;;;;;;26.30;99.90;;;;;;5060464;28;19932;-84
2023/05/13 09:05:45;;;;;;;;;;;26.80;99.90;;;;;;5060435;28;19928;-85
2023/05/13 09:08:12;;;;;;;;;;;27.50;99.90;;;;;;5060371;28;20011;-82
2023/05/13 09:10:39;;;;;;;;;;;28.70;99.90;;;;;;5059405;28;19928;-82
2023/05/13 09:13:06;;;;;;;;;;;29.90;99.90;;;;;;5058959;28;19928;-83
2023/05/13 09:15:33;;;;;;;;;;;31.10;99.90;;;;;;5058178;28;20248;-83
2023/05/13 09:18:02;;;;;;;;;;;31.20;99.90;;;;;;5058575;28;19928;-84
2023/05/13 09:20:30;;;;;;;;;;;31.50;99.90;;;;;;5058591;28;19929;-84
2023/05/13 09:22:58;;;;;;;;;;;31.50;96.10;;;;;;5057963;28;19954;-83
2023/05/13 09:25:25;;;;;;;;;;;30.30;95.60;;;;;;5066154;28;20456;-85
2023/05/13 09:27:56;;;;;;;;;;;30.30;95.60;;;;;;5059515;28;19940;-85
2023/05/13 09:30:23;;;;;;;;;;;29.50;92.40;;;;;;5077036;28;19928;-85
2023/05/13 09:33:04;;;;;;;;;;;30.00;93.60;;;;;;5059121;28;19936;-85
2023/05/13 09:35:33;;;;;;;;;;;29.40;94.40;;;;;;5077930;28;19924;-85
2023/05/13 09:38:00;;;;;;;;;;;29.40;93.80;;;;;;5060060;28;19929;-84
2023/05/13 09:40:27;;;;;;;;;;;29.40;94.50;;;;;;5076987;28;19978;-83
2023/05/13 09:42:57;;;;;;;;;;;29.20;92.30;;;;;;5077528;28;19932;-84
2023/05/13 09:45:25;;;;;;;;;;;27.80;91.80;;;;;;5064303;28;19982;-85
2023/05/13 09:47:52;;;;;;;;;;;27.70;92.30;;;;;;5059169;28;19971;-84
2023/05/13 09:50:19;;;;;;;;;;;26.40;93.20;;;;;;5064532;28;19935;-86
2023/05/13 09:52:47;;;;;;;;;;;26.20;92.20;;;;;;5061871;28;19913;-84
2023/05/13 09:55:14;;;;;;;;;;;25.50;91.60;;;;;;5061282;28;19937;-84
2023/05/13 09:57:42;;;;;;;;;;;24.80;93.10;;;;;;5042285;28;19932;-85
2023/05/13 10:00:09;;;;;;;;;;;24.00;94.00;;;;;;5040264;28;19936;-85
2023/05/13 10:02:39;;;;;;;;;;;23.60;93.90;;;;;;5058744;28;19933;-85
2023/05/13 10:05:08;;;;;;;;;;;23.60;94.00;;;;;;5060029;28;19931;-84
2023/05/13 10:07:36;;;;;;;;;;;23.40;94.20;;;;;;5058839;28;19943;-85
2023/05/13 10:10:06;;;;;;;;;;;23.30;95.20;;;;;;5040906;28;19940;-85
2023/05/13 10:12:34;;;;;;;;;;;23.30;95.40;;;;;;5040767;28;19925;-85
2023/05/13 10:15:01;;;;;;;;;;;23.40;96.20;;;;;;5055984;28;19925;-85
2023/05/13 10:17:29;;;;;;;;;;;23.50;96.00;;;;;;5057504;28;19929;-85
2023/05/13 10:19:56;;;;;;;;;;;23.50;95.30;;;;;;5085445;28;20315;-85
2023/05/13 10:22:27;;;;;;;;;;;23.40;94.70;;;;;;5079178;28;19928;-85
2023/05/13 10:24:55;;;;;;;;;;;23.30;95.30;;;;;;5080356;28;19974;-85
2023/05/13 10:27:25;;;;;;;;;;;23.30;93.60;;;;;;5080804;28;19928;-84
2023/05/13 10:29:53;;;;;;;;;;;23.30;93.20;;;;;;5081874;28;19977;-85
2023/05/13 10:32:22;;;;;;;;;;;23.30;93.50;;;;;;5102697;28;19924;-85
2023/05/13 10:34:49;;;;;;;;;;;23.20;93.50;;;;;;5086197;28;19982;-85
2023/05/13 10:37:29;;;;;;;;;;;23.30;93.40;;;;;;5084833;28;19924;-85
2023/05/13 10:40:12;;;;;;;;;;;23.30;92.60;;;;;;5084697;28;19927;-85
2023/05/13 10:42:41;;;;;;;;;;;23.30;93.70;;;;;;5083803;28;19940;-85
2023/05/13 10:45:09;;;;;;;;;;;23.30;92.80;;;;;;5102046;28;19928;-85
2023/05/13 10:47:36;;;;;;;;;;;23.20;92.40;;;;;;5081613;28;19931;-85
2023/05/13 10:50:05;;;;;;;;;;;23.20;92.30;;;;;;5081612;28;19933;-85
2023/05/13 10:52:42;;;;;;;;;;;23.30;93.10;;;;;;5063208;28;19938;-85
2023/05/13 10:55:14;;;;;;;;;;;23.40;93.60;;;;;;5060307;28;19924;-85
2023/05/13 10:58:03;;;;;;;;;;;23.50;92.20;;;;;;5038645;28;19928;-85
2023/05/13 11:00:30;;;;;;;;;;;23.50;93.30;;;;;;5045862;28;20011;-84
2023/05/13 11:02:58;;;;;;;;;;;23.60;92.30;;;;;;5078376;28;20387;-83
2023/05/13 11:05:25;;;;;;;;;;;23.70;93.30;;;;;;5059968;28;19945;-82
2023/05/13 11:07:56;;;;;;;;;;;23.70;93.00;;;;;;5079356;28;19920;-83
2023/05/13 11:10:28;;;;;;;;;;;23.70;92.80;;;;;;5061546;28;19950;-83
2023/05/13 11:13:14;;;;;;;;;;;23.70;92.60;;;;;;5061821;28;19987;-83
2023/05/13 11:15:44;;;;;;;;;;;23.60;91.40;;;;;;5060347;28;20356;-83
2023/05/13 11:18:12;;;;;;;;;;;23.70;92.40;;;;;;5060582;28;19925;-82
2023/05/13 11:20:39;;;;;;;;;;;23.80;92.60;;;;;;5081788;28;19924;-81
2023/05/13 11:23:07;;;;;;;;;;;23.80;92.70;;;;;;5071585;28;19928;-82
2023/05/13 11:25:34;;;;;;;;;;;23.80;91.80;;;;;;5067563;28;20055;-83
2023/05/13 11:28:03;;;;;;;;;;;23.90;91.70;;;;;;5065967;28;19925;-83
2023/05/13 11:30:30;;;;;;;;;;;24.60;91.90;;;;;;5061395;28;19975;-83
2023/05/13 11:33:01;;;;;;;;;;;24.00;91.60;;;;;;5059878;28;19924;-83
2023/05/13 11:35:28;;;;;;;;;;;24.00;91.00;;;;;;5078746;28;19932;-83
2023/05/13 11:37:56;;;;;;;;;;;24.10;91.30;;;;;;5079366;28;19936;-82
2023/05/13 11:40:23;;;;;;;;;;;24.10;90.10;;;;;;5076143;28;19935;-82
2023/05/13 11:42:50;;;;;;;;;;;24.10;91.30;;;;;;5075814;28;20072;-84
2023/05/13 11:45:17;;;;;;;;;;;24.10;89.80;;;;;;5070830;28;20361;-84
2023/05/13 11:47:47;;;;;;;;;;;24.40;89.70;;;;;;5073377;28;19935;-83
2023/05/13 11:50:19;;;;;;;;;;;24.40;91.00;;;;;;5079238;28;20075;-83
2023/05/13 11:52:50;;;;;;;;;;;24.60;90.40;;;;;;5067727;28;19935;-84
2023/05/13 11:55:24;;;;;;;;;;;24.70;89.40;;;;;;5065992;28;20272;-83
2023/05/13 11:57:51;;;;;;;;;;;24.60;87.00;;;;;;5072069;28;19925;-82
2023/05/13 12:00:23;;;;;;;;;;;24.80;90.50;;;;;;5064467;28;20023;-83
2023/05/13 12:02:50;;;;;;;;;;;24.80;89.40;;;;;;5081653;28;20369;-83
2023/05/13 12:05:19;;;;;;;;;;;25.00;90.20;;;;;;5061757;28;20006;-83
2023/05/13 12:07:46;;;;;;;;;;;25.10;90.10;;;;;;5064703;28;19936;-83
2023/05/13 12:10:13;;;;;;;;;;;25.20;91.30;;;;;;5080747;28;19932;-82
2023/05/13 12:12:41;;;;;;;;;;;25.10;90.20;;;;;;5084304;28;19938;-84
2023/05/13 12:15:10;;;;;;;;;;;25.00;90.80;;;;;;5084513;28;19924;-84
2023/05/13 12:17:37;;;;;;;;;;;25.30;90.80;;;;;;5084596;28;20292;-81
2023/05/13 12:20:10;;;;;;;;;;;25.70;90.10;;;;;;5105016;28;20617;-82
2023/05/13 12:22:49;;;;;;;;;;;25.90;89.60;;;;;;5098153;28;20388;-82
2023/05/13 12:25:46;;;;;;;;;;;25.90;89.00;;;;;;5075857;28;19936;-82
2023/05/13 12:28:15;;;;;;;;;;;26.00;86.50;;;;;;4998884;28;20032;-82
2023/05/13 12:30:43;;;;;;;;;;;25.90;89.40;;;;;;5059089;28;19928;-82
2023/05/13 12:33:14;;;;;;;;;;;25.80;84.20;;;;;;5066987;28;19951;-83
2023/05/13 12:35:43;;;;;;;;;;;25.10;87.50;;;;;;5053687;28;20393;-82
2023/05/13 12:38:16;;;;;;;;;;;25.20;86.70;;;;;;5076106;28;19928;-83
2023/05/13 12:40:43;;;;;;;;;;;25.00;84.80;;;;;;5078318;28;19924;-83
2023/05/13 12:43:10;;;;;;;;;;;25.00;85.30;;;;;;5102100;28;19923;-82
2023/05/13 12:45:39;;;;;;;;;;;25.50;87.60;;;;;;5071344;28;19932;-82
2023/05/13 12:48:06;;;;;;;;;;;25.70;88.10;;;;;;5069180;28;19925;-83
2023/05/13 12:50:33;;;;;;;;;;;26.00;86.30;;;;;;5066621;28;20588;-83
2023/05/13 12:53:00;;;;;;;;;;;26.30;87.10;;;;;;5061451;28;19935;-82
2023/05/13 12:55:29;;;;;;;;;;;26.50;81.40;;;;;;5077671;28;19932;-84
2023/05/13 12:57:58;;;;;;;;;;;26.40;80.90;;;;;;5091767;28;20000;-83
2023/05/13 13:00:25;;;;;;;;;;;26.40;80.90;;;;;;5066186;28;19982;-84
2023/05/13 13:02:53;;;;;;;;;;;26.50;82.00;;;;;;5064916;28;19983;-84
2023/05/13 13:05:20;;;;;;;;;;;27.00;84.60;;;;;;5065822;28;19950;-83
2023/05/13 13:07:47;;;;;;;;;;;27.10;84.30;;;;;;5065449;28;19964;-84
2023/05/13 13:10:14;;;;;;;;;;;27.10;85.70;;;;;;5083201;28;19928;-83
2023/05/13 13:12:43;;;;;;;;;;;27.60;84.80;;;;;;5063609;28;19928;-83
2023/05/13 13:15:11;;;;;;;;;;;27.30;82.10;;;;;;5077216;28;19942;-83
2023/05/13 13:17:38;;;;;;;;;;;26.60;80.60;;;;;;5081275;28;19928;-83
2023/05/13 13:20:06;;;;;;;;;;;26.00;82.80;;;;;;5058820;28;19936;-82
2023/05/13 13:22:33;;;;;;;;;;;25.60;82.90;;;;;;5050304;28;20256;-83
2023/05/13 13:25:00;;;;;;;;;;;25.20;83.10;;;;;;5060946;28;19940;-82
2023/05/13 13:27:27;;;;;;;;;;;25.10;85.10;;;;;;5069292;28;19929;-82
2023/05/13 13:29:55;;;;;;;;;;;25.20;86.00;;;;;;5061826;28;20043;-82
2023/05/13 13:32:22;;;;;;;;;;;25.40;86.10;;;;;;5060461;28;19924;-83
2023/05/13 13:34:49;;;;;;;;;;;25.40;85.10;;;;;;5062872;28;19913;-83
2023/05/13 13:37:17;;;;;;;;;;;24.80;81.70;;;;;;5066255;28;20002;-82
2023/05/13 13:39:45;;;;;;;;;;;24.50;81.30;;;;;;5063173;28;19931;-82
2023/05/13 13:42:11;;;;;;;;;;;24.30;83.40;;;;;;5062316;28;19929;-82
2023/05/13 13:44:38;;;;;;;;;;;24.30;85.30;;;;;;5063564;28;19928;-82
2023/05/13 13:47:07;;;;;;;;;;;24.70;86.40;;;;;;5062919;28;19936;-83
2023/05/13 13:49:34;;;;;;;;;;;25.00;84.40;;;;;;5063143;28;20030;-82
2023/05/13 13:52:01;;;;;;;;;;;25.20;82.70;;;;;;5051474;28;20346;-83
2023/05/13 13:54:28;;;;;;;;;;;25.00;83.00;;;;;;5069207;28;19939;-83
2023/05/13 13:56:55;;;;;;;;;;;24.90;85.10;;;;;;5070786;28;19924;-84
2023/05/13 13:59:22;;;;;;;;;;;24.90;85.00;;;;;;5078634;28;19951;-83
2023/05/13 14:01:50;;;;;;;;;;;25.10;85.80;;;;;;5079576;28;19931;-83
2023/05/13 14:04:22;;;;;;;;;;;26.00;88.80;;;;;;5080790;28;19935;-83
2023/05/13 14:06:49;;;;;;;;;;;26.00;83.60;;;;;;5079724;28;19929;-82
2023/05/13 14:09:16;;;;;;;;;;;26.10;83.90;;;;;;5059908;28;19947;-83
2023/05/13 14:11:42;;;;;;;;;;;25.90;83.10;;;;;;5054870;28;19928;-83
2023/05/13 14:14:09;;;;;;;;;;;25.80;84.50;;;;;;5077918;28;19924;-83
2023/05/13 14:16:36;;;;;;;;;;;25.60;84.80;;;;;;5098554;28;20011;-83
2023/05/13 14:19:03;;;;;;;;;;;25.50;82.60;;;;;;5043695;28;20031;-83
2023/05/13 14:21:32;;;;;;;;;;;25.10;81.50;;;;;;5041403;28;20211;-84
2023/05/13 14:23:59;;;;;;;;;;;24.50;82.10;;;;;;5061391;28;19964;-83